sensor_id;sensor_type;location;lat;lon;timestamp;pressure;altitude;pressure_sealevel;temperature;humidity
57827;BME280;43656;57.746;11.780;2023-05-12T00:01:39;102188.22;;;15.23;61.63
57827;BME280;43656;57.746;11.780;2023-05-12T00:04:06;102181.91;;;15.16;61.54
57827;BME280;43656;57.746;11.780;2023-05-12T00:06:31;102189.16;;;15.09;61.65
57827;BME280;43656;57.746;11.780;2023-05-12T00:08:57;102183.50;;;15.03;61.91
57827;BME280;43656;57.746;11.780;2023-05-12T00:11:22;102185.28;;;14.96;61.88
57827;BME280;43656;57.746;11.780;2023-05-12T00:13:48;102180.28;;;14.93;62.45
57827;BME280;43656;57.746;11.780;2023-05-12T00:16:13;102179.13;;;14.81;62.18
57827;BME280;43656;57.746;11.780;2023-05-12T00:18:41;102188.13;;;14.67;62.63
57827;BME280;43656;57.746;11.780;2023-05-12T00:21:07;102188.72;;;14.62;62.93
57827;BME280;43656;57.746;11.780;2023-05-12T00:23:33;102188.63;;;14.55;62.84
57827;BME280;43656;57.746;11.780;2023-05-12T00:25:58;102188.84;;;14.54;63.04
57827;BME280;43656;57.746;11.780;2023-05-12T00:28:24;102196.53;;;14.50;62.70
57827;BME280;43656;57.746;11.780;2023-05-12T00:30:49;102189.97;;;14.45;62.36
57827;BME280;43656;57.746;11.780;2023-05-12T00:33:15;102191.38;;;14.41;61.94
57827;BME280;43656;57.746;11.780;2023-05-12T00:35:41;102192.59;;;14.38;61.77
57827;BME280;43656;57.746;11.780;2023-05-12T00:38:09;102177.31;;;14.30;61.81
57827;BME280;43656;57.746;11.780;2023-05-12T00:40:34;102179.34;;;14.28;61.39
57827;BME280;43656;57.746;11.780;2023-05-12T00:43:00;102193.13;;;14.33;61.49
57827;BME280;43656;57.746;11.780;2023-05-12T00:45:26;102177.69;;;14.27;61.16
57827;BME280;43656;57.746;11.780;2023-05-12T00:47:53;102187.25;;;14.30;61.04
57827;BME280;43656;57.746;11.780;2023-05-12T00:50:19;102191.09;;;14.36;60.92
57827;BME280;43656;57.746;11.780;2023-05-12T00:52:47;102199.22;;;14.36;61.12
57827;BME280;43656;57.746;11.780;2023-05-12T00:55:13;102181.31;;;14.20;61.04
57827;BME280;43656;57.746;11.780;2023-05-12T00:57:40;102197.47;;;14.28;61.26
57827;BME280;43656;57.746;11.780;2023-05-12T01:00:06;102201.59;;;14.24;60.80
57827;BME280;43656;57.746;11.780;2023-05-12T01:02:34;102204.22;;;14.17;61.02
57827;BME280;43656;57.746;11.780;2023-05-12T01:05:01;102203.47;;;14.08;61.01
57827;BME280;43656;57.746;11.780;2023-05-12T01:07:30;102203.00;;;14.05;60.85
57827;BME280;43656;57.746;11.780;2023-05-12T01:09:57;102197.56;;;13.90;60.68
57827;BME280;43656;57.746;11.780;2023-05-12T01:12:23;102200.13;;;13.92;60.50
57827;BME280;43656;57.746;11.780;2023-05-12T01:14:51;102179.50;;;13.76;60.67
57827;BME280;43656;57.746;11.780;2023-05-12T01:17:23;102180.06;;;13.71;60.70
57827;BME280;43656;57.746;11.780;2023-05-12T01:19:57;102207.69;;;13.81;60.50
57827;BME280;43656;57.746;11.780;2023-05-12T01:22:24;102208.88;;;13.79;60.38
57827;BME280;43656;57.746;11.780;2023-05-12T01:24:51;102211.75;;;13.77;60.09
57827;BME280;43656;57.746;11.780;2023-05-12T01:27:19;102219.88;;;13.77;60.38
57827;BME280;43656;57.746;11.780;2023-05-12T01:29:46;102217.00;;;13.79;60.28
57827;BME280;43656;57.746;11.780;2023-05-12T01:32:13;102209.91;;;13.78;59.98
57827;BME280;43656;57.746;11.780;2023-05-12T01:34:39;102223.59;;;13.76;59.90
57827;BME280;43656;57.746;11.780;2023-05-12T01:37:07;102227.06;;;13.70;60.14
57827;BME280;43656;57.746;11.780;2023-05-12T01:39:33;102234.53;;;13.68;59.69
57827;BME280;43656;57.746;11.780;2023-05-12T01:41:59;102222.88;;;13.68;59.48
57827;BME280;43656;57.746;11.780;2023-05-12T01:44:25;102226.13;;;13.63;59.33
57827;BME280;43656;57.746;11.780;2023-05-12T01:46:50;102226.84;;;13.57;59.44
57827;BME280;43656;57.746;11.780;2023-05-12T01:49:16;102224.03;;;13.50;59.74
57827;BME280;43656;57.746;11.780;2023-05-12T01:51:41;102227.31;;;13.46;59.22
57827;BME280;43656;57.746;11.780;2023-05-12T01:54:07;102224.13;;;13.42;59.45
57827;BME280;43656;57.746;11.780;2023-05-12T01:56:32;102229.72;;;13.40;59.25
57827;BME280;43656;57.746;11.780;2023-05-12T01:58:57;102235.13;;;13.40;58.88
57827;BME280;43656;57.746;11.780;2023-05-12T02:01:23;102236.16;;;13.39;58.68
57827;BME280;43656;57.746;11.780;2023-05-12T02:03:55;102231.56;;;13.40;58.30
57827;BME280;43656;57.746;11.780;2023-05-12T02:06:21;102242.75;;;13.37;58.20
57827;BME280;43656;57.746;11.780;2023-05-12T02:08:47;102237.72;;;13.34;58.33
57827;BME280;43656;57.746;11.780;2023-05-12T02:11:14;102239.28;;;13.28;58.55
57827;BME280;43656;57.746;11.780;2023-05-12T02:13:40;102240.16;;;13.21;58.89
57827;BME280;43656;57.746;11.780;2023-05-12T02:16:06;102232.78;;;13.14;59.42
57827;BME280;43656;57.746;11.780;2023-05-12T02:18:32;102231.53;;;13.02;59.85
57827;BME280;43656;57.746;11.780;2023-05-12T02:20:57;102236.81;;;12.96;60.01
57827;BME280;43656;57.746;11.780;2023-05-12T02:23:23;102243.28;;;12.86;60.24
57827;BME280;43656;57.746;11.780;2023-05-12T02:25:48;102245.53;;;12.75;60.54
57827;BME280;43656;57.746;11.780;2023-05-12T02:28:14;102247.16;;;12.61;61.18
57827;BME280;43656;57.746;11.780;2023-05-12T02:30:49;102240.41;;;12.57;61.37
57827;BME280;43656;57.746;11.780;2023-05-12T02:33:18;102246.38;;;12.44;61.56
57827;BME280;43656;57.746;11.780;2023-05-12T02:35:44;102247.44;;;12.35;61.63
57827;BME280;43656;57.746;11.780;2023-05-12T02:38:10;102247.00;;;12.23;62.30
57827;BME280;43656;57.746;11.780;2023-05-12T02:40:36;102248.88;;;12.14;62.33
57827;BME280;43656;57.746;11.780;2023-05-12T02:43:01;102246.38;;;12.13;62.57
57827;BME280;43656;57.746;11.780;2023-05-12T02:45:27;102246.03;;;12.08;62.93
57827;BME280;43656;57.746;11.780;2023-05-12T02:47:52;102247.22;;;12.05;62.72
57827;BME280;43656;57.746;11.780;2023-05-12T02:50:18;102233.28;;;11.93;62.93
57827;BME280;43656;57.746;11.780;2023-05-12T02:52:46;102229.25;;;11.89;62.80
57827;BME280;43656;57.746;11.780;2023-05-12T02:55:11;102241.31;;;12.10;62.92
57827;BME280;43656;57.746;11.780;2023-05-12T02:57:37;102242.81;;;12.12;62.67
57827;BME280;43656;57.746;11.780;2023-05-12T03:00:03;102240.47;;;12.09;63.20
57827;BME280;43656;57.746;11.780;2023-05-12T03:02:33;102237.94;;;12.08;62.77
57827;BME280;43656;57.746;11.780;2023-05-12T03:04:59;102209.69;;;11.87;63.03
57827;BME280;43656;57.746;11.780;2023-05-12T03:07:24;102232.38;;;12.01;63.21
57827;BME280;43656;57.746;11.780;2023-05-12T03:09:50;102242.69;;;12.06;63.32
57827;BME280;43656;57.746;11.780;2023-05-12T03:12:15;102243.81;;;12.11;62.97
57827;BME280;43656;57.746;11.780;2023-05-12T03:14:41;102238.72;;;12.25;62.74
57827;BME280;43656;57.746;11.780;2023-05-12T03:17:07;102235.66;;;12.36;62.31
57827;BME280;43656;57.746;11.780;2023-05-12T03:19:32;102242.72;;;12.37;61.72
57827;BME280;43656;57.746;11.780;2023-05-12T03:21:59;102233.72;;;12.44;61.62
57827;BME280;43656;57.746;11.780;2023-05-12T03:24:24;102232.53;;;12.47;61.56
57827;BME280;43656;57.746;11.780;2023-05-12T03:26:50;102188.19;;;12.10;61.48
57827;BME280;43656;57.746;11.780;2023-05-12T03:29:16;102230.88;;;12.38;61.87
57827;BME280;43656;57.746;11.780;2023-05-12T03:31:41;102231.00;;;12.53;61.32
57827;BME280;43656;57.746;11.780;2023-05-12T03:34:07;102228.75;;;12.87;60.46
57827;BME280;43656;57.746;11.780;2023-05-12T03:36:32;102231.66;;;13.32;58.86
57827;BME280;43656;57.746;11.780;2023-05-12T03:38:57;102206.63;;;13.53;57.42
57827;BME280;43656;57.746;11.780;2023-05-12T03:41:23;102218.84;;;13.93;55.71
57827;BME280;43656;57.746;11.780;2023-05-12T03:43:48;102224.63;;;14.34;54.63
57827;BME280;43656;57.746;11.780;2023-05-12T03:46:14;102235.38;;;14.79;53.54
57827;BME280;43656;57.746;11.780;2023-05-12T03:48:39;102219.75;;;15.02;52.53
57827;BME280;43656;57.746;11.780;2023-05-12T03:51:05;102247.28;;;15.49;51.62
57827;BME280;43656;57.746;11.780;2023-05-12T03:53:30;102227.69;;;15.75;50.22
57827;BME280;43656;57.746;11.780;2023-05-12T03:55:56;102233.34;;;16.15;49.28
57827;BME280;43656;57.746;11.780;2023-05-12T03:58:24;102229.53;;;16.51;48.59
57827;BME280;43656;57.746;11.780;2023-05-12T04:00:49;102236.97;;;16.83;47.81
57827;BME280;43656;57.746;11.780;2023-05-12T04:03:15;102230.75;;;17.09;46.93
57827;BME280;43656;57.746;11.780;2023-05-12T04:05:41;102234.31;;;17.43;45.95
57827;BME280;43656;57.746;11.780;2023-05-12T04:08:07;102240.56;;;17.70;45.27
57827;BME280;43656;57.746;11.780;2023-05-12T04:10:37;102241.59;;;18.02;44.31
57827;BME280;43656;57.746;11.780;2023-05-12T04:13:04;102247.16;;;18.27;43.58
57827;BME280;43656;57.746;11.780;2023-05-12T04:15:29;102245.78;;;18.57;43.21
57827;BME280;43656;57.746;11.780;2023-05-12T04:17:54;102228.44;;;18.89;42.24
57827;BME280;43656;57.746;11.780;2023-05-12T04:20:20;102243.69;;;19.29;42.03
57827;BME280;43656;57.746;11.780;2023-05-12T04:22:46;102250.13;;;19.59;41.48
57827;BME280;43656;57.746;11.780;2023-05-12T04:25:12;102250.78;;;19.30;41.12
57827;BME280;43656;57.746;11.780;2023-05-12T04:27:37;102239.44;;;19.33;41.10
57827;BME280;43656;57.746;11.780;2023-05-12T04:30:03;102253.53;;;19.55;40.62
57827;BME280;43656;57.746;11.780;2023-05-12T04:32:28;102257.13;;;19.80;39.96
57827;BME280;43656;57.746;11.780;2023-05-12T04:34:54;102259.78;;;19.87;39.64
57827;BME280;43656;57.746;11.780;2023-05-12T04:37:20;102266.31;;;20.23;38.78
57827;BME280;43656;57.746;11.780;2023-05-12T04:39:46;102258.34;;;20.03;38.45
57827;BME280;43656;57.746;11.780;2023-05-12T04:42:12;102242.16;;;20.19;38.46
57827;BME280;43656;57.746;11.780;2023-05-12T04:44:38;102264.28;;;20.36;38.05
57827;BME280;43656;57.746;11.780;2023-05-12T04:47:03;102251.59;;;20.60;37.25
57827;BME280;43656;57.746;11.780;2023-05-12T04:49:29;102256.75;;;20.32;37.21
57827;BME280;43656;57.746;11.780;2023-05-12T04:51:54;102251.03;;;21.00;36.83
57827;BME280;43656;57.746;11.780;2023-05-12T04:54:20;102253.59;;;20.53;36.96
57827;BME280;43656;57.746;11.780;2023-05-12T04:56:46;102254.00;;;20.50;36.61
57827;BME280;43656;57.746;11.780;2023-05-12T04:59:12;102252.56;;;20.48;36.54
57827;BME280;43656;57.746;11.780;2023-05-12T05:01:40;102255.38;;;20.23;36.64
57827;BME280;43656;57.746;11.780;2023-05-12T05:04:07;102257.28;;;20.22;36.33
57827;BME280;43656;57.746;11.780;2023-05-12T05:06:32;102253.84;;;20.94;35.68
57827;BME280;43656;57.746;11.780;2023-05-12T05:08:57;102246.72;;;20.93;35.56
57827;BME280;43656;57.746;11.780;2023-05-12T05:11:23;102257.28;;;20.89;35.51
57827;BME280;43656;57.746;11.780;2023-05-12T05:13:48;102270.25;;;20.45;35.86
57827;BME280;43656;57.746;11.780;2023-05-12T05:16:14;102263.66;;;21.13;35.44
57827;BME280;43656;57.746;11.780;2023-05-12T05:18:39;102267.03;;;20.85;35.54
57827;BME280;43656;57.746;11.780;2023-05-12T05:21:11;102249.44;;;21.34;35.02
57827;BME280;43656;57.746;11.780;2023-05-12T05:23:38;102246.78;;;20.86;35.02
57827;BME280;43656;57.746;11.780;2023-05-12T05:26:03;102257.94;;;21.15;35.05
57827;BME280;43656;57.746;11.780;2023-05-12T05:28:29;102266.47;;;21.37;34.82
57827;BME280;43656;57.746;11.780;2023-05-12T05:30:55;102262.25;;;20.80;35.66
57827;BME280;43656;57.746;11.780;2023-05-12T05:33:20;102266.97;;;20.00;37.01
57827;BME280;43656;57.746;11.780;2023-05-12T05:35:46;102253.16;;;19.51;37.78
57827;BME280;43656;57.746;11.780;2023-05-12T05:38:12;102278.75;;;19.50;37.97
57827;BME280;43656;57.746;11.780;2023-05-12T05:40:38;102280.56;;;19.38;38.08
57827;BME280;43656;57.746;11.780;2023-05-12T05:43:03;102283.09;;;19.64;37.65
57827;BME280;43656;57.746;11.780;2023-05-12T05:45:28;102283.09;;;19.64;37.41
57827;BME280;43656;57.746;11.780;2023-05-12T05:47:54;102281.50;;;20.00;36.81
57827;BME280;43656;57.746;11.780;2023-05-12T05:50:19;102288.41;;;20.21;36.57
57827;BME280;43656;57.746;11.780;2023-05-12T05:52:45;102272.44;;;19.81;36.53
57827;BME280;43656;57.746;11.780;2023-05-12T05:55:10;102297.41;;;19.85;36.48
57827;BME280;43656;57.746;11.780;2023-05-12T05:57:36;102272.13;;;19.89;35.72
57827;BME280;43656;57.746;11.780;2023-05-12T06:00:03;102280.44;;;20.19;35.63
57827;BME280;43656;57.746;11.780;2023-05-12T06:02:29;102293.03;;;20.02;35.49
57827;BME280;43656;57.746;11.780;2023-05-12T06:04:56;102282.75;;;19.79;35.59
57827;BME280;43656;57.746;11.780;2023-05-12T06:07:22;102292.56;;;20.05;35.17
57827;BME280;43656;57.746;11.780;2023-05-12T06:09:47;102307.56;;;20.21;34.91
57827;BME280;43656;57.746;11.780;2023-05-12T06:12:13;102309.22;;;20.40;34.74
57827;BME280;43656;57.746;11.780;2023-05-12T06:14:38;102313.22;;;20.93;34.35
57827;BME280;43656;57.746;11.780;2023-05-12T06:17:04;102286.81;;;20.69;33.98
57827;BME280;43656;57.746;11.780;2023-05-12T06:19:29;102307.94;;;20.61;34.22
57827;BME280;43656;57.746;11.780;2023-05-12T06:21:54;102306.13;;;20.74;34.09
57827;BME280;43656;57.746;11.780;2023-05-12T06:24:20;102316.13;;;20.80;33.71
57827;BME280;43656;57.746;11.780;2023-05-12T06:26:45;102309.16;;;20.96;33.53
57827;BME280;43656;57.746;11.780;2023-05-12T06:29:11;102307.47;;;20.83;33.61
57827;BME280;43656;57.746;11.780;2023-05-12T06:31:36;102306.84;;;20.81;33.12
57827;BME280;43656;57.746;11.780;2023-05-12T06:34:02;102301.66;;;20.91;33.35
57827;BME280;43656;57.746;11.780;2023-05-12T06:36:28;102300.72;;;21.27;33.28
57827;BME280;43656;57.746;11.780;2023-05-12T06:38:54;102285.78;;;21.53;32.94
57827;BME280;43656;57.746;11.780;2023-05-12T06:41:20;102294.72;;;21.61;32.51
57827;BME280;43656;57.746;11.780;2023-05-12T06:43:46;102296.53;;;21.67;32.12
57827;BME280;43656;57.746;11.780;2023-05-12T06:46:11;102284.25;;;21.57;32.57
57827;BME280;43656;57.746;11.780;2023-05-12T06:48:37;102294.34;;;21.45;32.14
57827;BME280;43656;57.746;11.780;2023-05-12T06:51:03;102307.94;;;21.64;32.33
57827;BME280;43656;57.746;11.780;2023-05-12T06:53:28;102282.94;;;21.72;31.71
57827;BME280;43656;57.746;11.780;2023-05-12T06:55:54;102310.13;;;21.97;31.62
57827;BME280;43656;57.746;11.780;2023-05-12T06:58:19;102308.31;;;22.14;31.25
57827;BME280;43656;57.746;11.780;2023-05-12T07:00:46;102304.50;;;21.80;31.13
57827;BME280;43656;57.746;11.780;2023-05-12T07:03:12;102316.28;;;21.69;31.12
57827;BME280;43656;57.746;11.780;2023-05-12T07:05:37;102303.56;;;21.86;30.47
57827;BME280;43656;57.746;11.780;2023-05-12T07:08:04;102323.31;;;21.65;30.42
57827;BME280;43656;57.746;11.780;2023-05-12T07:10:29;102326.66;;;21.67;30.35
57827;BME280;43656;57.746;11.780;2023-05-12T07:12:55;102323.09;;;22.13;30.37
57827;BME280;43656;57.746;11.780;2023-05-12T07:15:21;102320.22;;;22.43;30.04
57827;BME280;43656;57.746;11.780;2023-05-12T07:17:47;102317.00;;;22.46;29.85
57827;BME280;43656;57.746;11.780;2023-05-12T07:20:12;102321.19;;;22.37;29.91
57827;BME280;43656;57.746;11.780;2023-05-12T07:22:38;102323.81;;;22.32;29.71
57827;BME280;43656;57.746;11.780;2023-05-12T07:25:03;102316.47;;;22.61;29.52
57827;BME280;43656;57.746;11.780;2023-05-12T07:27:29;102324.69;;;22.73;29.03
57827;BME280;43656;57.746;11.780;2023-05-12T07:29:54;102326.16;;;22.92;28.70
57827;BME280;43656;57.746;11.780;2023-05-12T07:32:20;102310.44;;;23.16;28.39
57827;BME280;43656;57.746;11.780;2023-05-12T07:34:45;102324.13;;;23.00;28.79
57827;BME280;43656;57.746;11.780;2023-05-12T07:37:11;102313.44;;;23.15;28.93
57827;BME280;43656;57.746;11.780;2023-05-12T07:39:36;102335.72;;;23.02;29.32
57827;BME280;43656;57.746;11.780;2023-05-12T07:42:02;102323.78;;;22.84;29.36
57827;BME280;43656;57.746;11.780;2023-05-12T07:44:28;102327.63;;;22.83;29.83
57827;BME280;43656;57.746;11.780;2023-05-12T07:46:54;102329.97;;;22.63;29.98
57827;BME280;43656;57.746;11.780;2023-05-12T07:49:20;102327.91;;;22.70;29.19
57827;BME280;43656;57.746;11.780;2023-05-12T07:51:47;102317.19;;;22.68;29.82
57827;BME280;43656;57.746;11.780;2023-05-12T07:54:12;102322.56;;;22.63;30.03
57827;BME280;43656;57.746;11.780;2023-05-12T07:56:38;102318.50;;;22.66;29.06
57827;BME280;43656;57.746;11.780;2023-05-12T07:59:03;102321.94;;;22.73;29.11
57827;BME280;43656;57.746;11.780;2023-05-12T08:01:29;102329.09;;;22.22;31.10
57827;BME280;43656;57.746;11.780;2023-05-12T08:03:54;102307.47;;;22.37;31.48
57827;BME280;43656;57.746;11.780;2023-05-12T08:06:20;102325.91;;;22.54;32.17
57827;BME280;43656;57.746;11.780;2023-05-12T08:08:45;102329.50;;;22.54;33.11
57827;BME280;43656;57.746;11.780;2023-05-12T08:11:11;102328.09;;;22.40;33.72
57827;BME280;43656;57.746;11.780;2023-05-12T08:13:37;102320.25;;;21.96;35.25
57827;BME280;43656;57.746;11.780;2023-05-12T08:16:02;102335.81;;;21.61;35.57
57827;BME280;43656;57.746;11.780;2023-05-12T08:18:28;102320.81;;;21.63;36.27
57827;BME280;43656;57.746;11.780;2023-05-12T08:20:54;102319.66;;;21.83;35.81
57827;BME280;43656;57.746;11.780;2023-05-12T08:23:19;102320.81;;;21.75;36.50
57827;BME280;43656;57.746;11.780;2023-05-12T08:25:45;102315.34;;;22.10;31.71
57827;BME280;43656;57.746;11.780;2023-05-12T08:28:12;102323.19;;;22.54;29.94
57827;BME280;43656;57.746;11.780;2023-05-12T08:30:39;102324.06;;;22.71;30.33
57827;BME280;43656;57.746;11.780;2023-05-12T08:33:04;102314.59;;;22.90;30.68
57827;BME280;43656;57.746;11.780;2023-05-12T08:35:31;102320.22;;;22.84;30.72
57827;BME280;43656;57.746;11.780;2023-05-12T08:37:57;102324.56;;;23.08;30.56
57827;BME280;43656;57.746;11.780;2023-05-12T08:40:23;102322.84;;;23.19;30.77
57827;BME280;43656;57.746;11.780;2023-05-12T08:43:12;102320.00;;;22.85;29.70
57827;BME280;43656;57.746;11.780;2023-05-12T08:45:40;102326.75;;;22.94;30.11
57827;BME280;43656;57.746;11.780;2023-05-12T08:48:08;102314.00;;;23.17;29.36
57827;BME280;43656;57.746;11.780;2023-05-12T08:50:34;102322.75;;;23.14;30.97
57827;BME280;43656;57.746;11.780;2023-05-12T08:53:02;102322.81;;;23.02;32.50
57827;BME280;43656;57.746;11.780;2023-05-12T08:55:29;102294.53;;;23.02;30.79
57827;BME280;43656;57.746;11.780;2023-05-12T08:57:55;102313.81;;;23.07;30.64
57827;BME280;43656;57.746;11.780;2023-05-12T09:00:22;102312.13;;;22.48;34.89
57827;BME280;43656;57.746;11.780;2023-05-12T09:02:50;102320.56;;;22.47;36.28
57827;BME280;43656;57.746;11.780;2023-05-12T09:05:17;102319.66;;;22.06;37.69
57827;BME280;43656;57.746;11.780;2023-05-12T09:07:43;102312.09;;;21.54;39.49
57827;BME280;43656;57.746;11.780;2023-05-12T09:10:14;102323.09;;;21.78;39.08
57827;BME280;43656;57.746;11.780;2023-05-12T09:12:41;102332.59;;;21.64;38.85
57827;BME280;43656;57.746;11.780;2023-05-12T09:15:10;102325.69;;;21.19;40.15
57827;BME280;43656;57.746;11.780;2023-05-12T09:17:37;102326.38;;;20.66;41.37
57827;BME280;43656;57.746;11.780;2023-05-12T09:20:03;102330.63;;;20.25;42.75
57827;BME280;43656;57.746;11.780;2023-05-12T09:22:31;102336.53;;;20.04;43.48
57827;BME280;43656;57.746;11.780;2023-05-12T09:25:00;102327.16;;;19.93;43.67
57827;BME280;43656;57.746;11.780;2023-05-12T09:27:26;102331.66;;;19.87;44.67
57827;BME280;43656;57.746;11.780;2023-05-12T09:29:52;102319.19;;;19.66;43.32
57827;BME280;43656;57.746;11.780;2023-05-12T09:32:29;102345.19;;;20.19;43.63
57827;BME280;43656;57.746;11.780;2023-05-12T09:34:55;102336.47;;;20.29;43.37
57827;BME280;43656;57.746;11.780;2023-05-12T09:37:29;102340.56;;;20.63;42.31
57827;BME280;43656;57.746;11.780;2023-05-12T09:40:02;102342.38;;;20.51;42.63
57827;BME280;43656;57.746;11.780;2023-05-12T09:42:30;102332.47;;;20.50;41.87
57827;BME280;43656;57.746;11.780;2023-05-12T09:45:03;102337.47;;;20.90;40.85
57827;BME280;43656;57.746;11.780;2023-05-12T09:47:39;102337.13;;;21.28;39.31
57827;BME280;43656;57.746;11.780;2023-05-12T09:50:06;102309.69;;;21.04;39.09
57827;BME280;43656;57.746;11.780;2023-05-12T09:52:36;102335.34;;;20.92;39.86
57827;BME280;43656;57.746;11.780;2023-05-12T09:55:10;102347.56;;;20.89;40.27
57827;BME280;43656;57.746;11.780;2023-05-12T09:57:40;102335.50;;;20.41;41.13
57827;BME280;43656;57.746;11.780;2023-05-12T10:00:11;102347.84;;;20.26;41.67
57827;BME280;43656;57.746;11.780;2023-05-12T10:02:43;102345.44;;;20.36;40.87
57827;BME280;43656;57.746;11.780;2023-05-12T10:05:19;102282.41;;;20.49;38.62
57827;BME280;43656;57.746;11.780;2023-05-12T10:07:50;102337.50;;;20.53;40.29
57827;BME280;43656;57.746;11.780;2023-05-12T10:10:20;102339.00;;;20.30;40.46
57827;BME280;43656;57.746;11.780;2023-05-12T10:12:48;102329.03;;;20.17;40.68
57827;BME280;43656;57.746;11.780;2023-05-12T10:15:15;102338.25;;;20.23;40.47
57827;BME280;43656;57.746;11.780;2023-05-12T10:17:43;102321.88;;;19.98;42.32
57827;BME280;43656;57.746;11.780;2023-05-12T10:20:09;102339.47;;;20.02;41.95
57827;BME280;43656;57.746;11.780;2023-05-12T10:22:39;102338.03;;;20.61;39.35
57827;BME280;43656;57.746;11.780;2023-05-12T10:25:05;102307.41;;;20.53;38.28
57827;BME280;43656;57.746;11.780;2023-05-12T10:27:33;102317.34;;;20.47;38.44
57827;BME280;43656;57.746;11.780;2023-05-12T10:30:00;102306.78;;;20.32;38.47
57827;BME280;43656;57.746;11.780;2023-05-12T10:32:26;102329.66;;;20.38;37.86
57827;BME280;43656;57.746;11.780;2023-05-12T10:34:52;102329.13;;;20.48;38.47
57827;BME280;43656;57.746;11.780;2023-05-12T10:37:18;102324.63;;;20.35;38.53
57827;BME280;43656;57.746;11.780;2023-05-12T10:39:48;102321.69;;;20.36;37.63
57827;BME280;43656;57.746;11.780;2023-05-12T10:42:21;102325.16;;;20.25;38.03
57827;BME280;43656;57.746;11.780;2023-05-12T10:44:54;102325.09;;;20.32;37.73
57827;BME280;43656;57.746;11.780;2023-05-12T10:47:36;102331.91;;;20.23;39.33
57827;BME280;43656;57.746;11.780;2023-05-12T10:50:02;102330.63;;;19.82;39.08
57827;BME280;43656;57.746;11.780;2023-05-12T10:52:27;102316.78;;;19.52;40.56
57827;BME280;43656;57.746;11.780;2023-05-12T10:55:00;102328.63;;;19.39;40.40
57827;BME280;43656;57.746;11.780;2023-05-12T10:57:25;102306.41;;;19.35;38.91
57827;BME280;43656;57.746;11.780;2023-05-12T10:59:59;102338.75;;;19.63;39.12
57827;BME280;43656;57.746;11.780;2023-05-12T11:02:26;102334.53;;;19.67;39.32
57827;BME280;43656;57.746;11.780;2023-05-12T11:05:09;102330.00;;;19.80;38.61
57827;BME280;43656;57.746;11.780;2023-05-12T11:07:34;102327.16;;;19.93;38.94
57827;BME280;43656;57.746;11.780;2023-05-12T11:10:02;102331.19;;;19.65;39.41
57827;BME280;43656;57.746;11.780;2023-05-12T11:12:29;102333.88;;;19.72;40.50
57827;BME280;43656;57.746;11.780;2023-05-12T11:15:00;102336.97;;;19.76;41.02
57827;BME280;43656;57.746;11.780;2023-05-12T11:17:26;102308.63;;;19.45;41.18
57827;BME280;43656;57.746;11.780;2023-05-12T11:19:52;102332.78;;;19.73;40.82
57827;BME280;43656;57.746;11.780;2023-05-12T11:22:20;102315.34;;;19.99;39.31
57827;BME280;43656;57.746;11.780;2023-05-12T11:24:46;102323.09;;;20.39;38.68
57827;BME280;43656;57.746;11.780;2023-05-12T11:27:14;102324.66;;;19.91;38.67
57827;BME280;43656;57.746;11.780;2023-05-12T11:29:40;102327.16;;;19.93;38.82
57827;BME280;43656;57.746;11.780;2023-05-12T11:32:10;102319.13;;;19.98;38.03
57827;BME280;43656;57.746;11.780;2023-05-12T11:34:38;102329.22;;;19.98;37.11
57827;BME280;43656;57.746;11.780;2023-05-12T11:37:04;102333.56;;;20.05;36.90
57827;BME280;43656;57.746;11.780;2023-05-12T11:39:32;102329.00;;;19.99;37.55
57827;BME280;43656;57.746;11.780;2023-05-12T11:42:05;102299.97;;;19.80;37.67
57827;BME280;43656;57.746;11.780;2023-05-12T11:44:35;102330.44;;;20.02;38.54
57827;BME280;43656;57.746;11.780;2023-05-12T11:49:53;102329.47;;;20.14;38.32
57827;BME280;43656;57.746;11.780;2023-05-12T11:52:20;102326.13;;;20.12;37.17
57827;BME280;43656;57.746;11.780;2023-05-12T11:54:57;102326.81;;;20.26;37.87
57827;BME280;43656;57.746;11.780;2023-05-12T11:57:33;102339.44;;;20.27;38.89
57827;BME280;43656;57.746;11.780;2023-05-12T12:00:04;102336.63;;;20.34;38.59
57827;BME280;43656;57.746;11.780;2023-05-12T12:02:31;102305.50;;;20.16;38.24
57827;BME280;43656;57.746;11.780;2023-05-12T12:04:57;102328.56;;;20.39;37.49
57827;BME280;43656;57.746;11.780;2023-05-12T12:07:34;102334.34;;;20.49;36.92
57827;BME280;43656;57.746;11.780;2023-05-12T12:10:11;102335.66;;;20.47;36.81
57827;BME280;43656;57.746;11.780;2023-05-12T12:12:37;102339.00;;;20.49;36.87
57827;BME280;43656;57.746;11.780;2023-05-12T12:15:03;102266.41;;;19.98;35.87
57827;BME280;43656;57.746;11.780;2023-05-12T12:17:29;102323.63;;;20.29;35.73
57827;BME280;43656;57.746;11.780;2023-05-12T12:19:55;102338.06;;;20.92;35.32
57827;BME280;43656;57.746;11.780;2023-05-12T12:22:21;102330.31;;;20.88;35.32
57827;BME280;43656;57.746;11.780;2023-05-12T12:24:46;102341.25;;;21.19;35.12
57827;BME280;43656;57.746;11.780;2023-05-12T12:27:12;102331.53;;;21.23;34.48
57827;BME280;43656;57.746;11.780;2023-05-12T12:29:37;102355.91;;;21.43;33.92
57827;BME280;43656;57.746;11.780;2023-05-12T12:32:03;102350.81;;;21.46;34.19
57827;BME280;43656;57.746;11.780;2023-05-12T12:34:29;102359.38;;;21.62;33.82
57827;BME280;43656;57.746;11.780;2023-05-12T12:36:54;102355.06;;;21.42;33.24
57827;BME280;43656;57.746;11.780;2023-05-12T12:39:20;102367.25;;;21.28;33.60
57827;BME280;43656;57.746;11.780;2023-05-12T12:41:47;102360.75;;;21.10;34.13